createdAt,value
2019-05-20T00:00:07.007Z,7.10
2019-05-20T00:02:36.403Z,6.58
2019-05-20T00:05:05.450Z,6.80
2019-05-20T00:07:34.973Z,7.28
2019-05-20T00:10:04.259Z,6.70
2019-05-20T00:12:34.092Z,7.10
2019-05-20T00:15:03.019Z,7.05
2019-05-20T00:17:32.121Z,6.92
2019-05-20T00:20:01.422Z,7.10
2019-05-20T00:22:30.283Z,7.12
2019-05-20T00:24:59.219Z,7.10
2019-05-20T00:27:29.107Z,6.93
2019-05-20T00:29:58.875Z,6.83
2019-05-20T00:32:40.252Z,7.25
2019-05-20T00:34:57.945Z,7.25
2019-05-20T00:37:26.791Z,7.03
2019-05-20T00:39:56.847Z,7.83
2019-05-20T00:42:25.667Z,7.20
2019-05-20T00:44:54.559Z,6.72
2019-05-20T00:47:23.511Z,6.90
2019-05-20T00:49:56.920Z,7.35
2019-05-20T00:52:25.915Z,7.40
2019-05-20T00:54:54.906Z,7.97
2019-05-20T00:57:24.165Z,7.40
2019-05-20T00:59:53.483Z,7.40
2019-05-20T01:02:22.328Z,7.10
2019-05-20T01:04:51.683Z,8.00
2019-05-20T01:07:21.625Z,7.83
2019-05-20T01:09:50.838Z,7.62
2019-05-20T01:12:19.731Z,7.35
2019-05-20T01:14:48.751Z,7.25
2019-05-20T01:17:17.750Z,7.67
2019-05-20T01:19:46.886Z,7.30
2019-05-20T01:22:15.879Z,7.55
2019-05-20T01:24:45.347Z,7.50
2019-05-20T01:27:16.171Z,7.62
2019-05-20T01:29:45.080Z,7.65
2019-05-20T01:32:14.247Z,7.37
2019-05-20T01:34:43.827Z,7.92
2019-05-20T01:37:12.770Z,7.83
2019-05-20T01:39:41.921Z,7.80
2019-05-20T01:42:11.550Z,7.95
2019-05-20T01:44:40.474Z,8.05
2019-05-20T01:47:10.143Z,7.67
2019-05-20T01:49:39.184Z,8.35
2019-05-20T01:52:08.191Z,7.83
2019-05-20T01:54:38.238Z,8.30
2019-05-20T01:57:07.394Z,7.45
2019-05-20T01:59:36.411Z,7.95
2019-05-20T02:02:06.244Z,7.90
2019-05-20T02:04:35.223Z,8.18
2019-05-20T02:07:05.118Z,7.76
2019-05-20T02:09:34.802Z,8.80
2019-05-20T02:12:03.894Z,8.60
2019-05-20T02:14:35.162Z,8.00
2019-05-20T02:17:05.006Z,7.55
2019-05-20T02:19:34.014Z,8.00
2019-05-20T02:22:03.173Z,7.80
2019-05-20T02:24:32.498Z,8.23
2019-05-20T02:27:01.077Z,7.95
2019-05-20T02:29:29.655Z,8.53
2019-05-20T02:31:58.323Z,8.23
2019-05-20T02:34:27.186Z,7.62
2019-05-20T02:36:55.705Z,8.60
2019-05-20T02:39:26.745Z,7.87
2019-05-20T02:41:53.075Z,8.33
2019-05-20T02:44:21.599Z,7.67
2019-05-20T02:46:50.127Z,8.08
2019-05-20T02:49:19.334Z,8.08
2019-05-20T02:51:47.871Z,8.00
2019-05-20T02:54:16.678Z,7.95
2019-05-20T02:56:45.205Z,7.70
2019-05-20T02:59:13.812Z,6.77
2019-05-20T03:01:42.363Z,8.13
2019-05-20T03:04:12.888Z,7.67
2019-05-20T03:06:39.813Z,7.50
2019-05-20T03:09:11.927Z,7.47
2019-05-20T03:11:37.119Z,7.42
2019-05-20T03:14:05.969Z,6.60
2019-05-20T03:16:34.478Z,7.28
2019-05-20T03:19:03.038Z,7.33
2019-05-20T03:21:31.561Z,6.87
2019-05-20T03:24:00.207Z,7.47
2019-05-20T03:26:29.014Z,7.30
2019-05-20T03:28:57.535Z,7.33
2019-05-20T03:31:26.134Z,6.97
2019-05-20T03:33:54.706Z,6.50
2019-05-20T03:36:23.294Z,6.90
2019-05-20T03:38:51.809Z,7.05
2019-05-20T03:41:20.370Z,7.28
2019-05-20T03:43:48.854Z,6.95
2019-05-20T03:46:17.650Z,7.15
2019-05-20T03:48:46.178Z,7.72
2019-05-20T03:51:15.014Z,7.00
2019-05-20T03:53:43.549Z,7.00
2019-05-20T03:56:12.475Z,6.87
2019-05-20T03:58:41.264Z,7.28
2019-05-20T04:01:10.214Z,6.97
2019-05-20T04:03:38.755Z,6.75
2019-05-20T04:06:07.611Z,7.15
2019-05-20T04:08:36.172Z,7.37
2019-05-20T04:11:05.628Z,7.45
2019-05-20T04:13:35.021Z,7.35
2019-05-20T04:16:02.906Z,7.92
2019-05-20T04:18:31.726Z,7.12
2019-05-20T04:21:00.294Z,6.85
2019-05-20T04:23:29.469Z,7.08
2019-05-20T04:25:59.418Z,7.25
2019-05-20T04:28:28.584Z,6.97
2019-05-20T04:30:59.690Z,6.97
2019-05-20T04:33:28.652Z,7.33
2019-05-20T04:36:00.665Z,7.03
2019-05-20T04:38:30.460Z,7.30
2019-05-20T04:40:59.464Z,7.20
2019-05-20T04:43:29.285Z,7.28
2019-05-20T04:45:58.280Z,7.40
2019-05-20T04:48:27.485Z,7.47
2019-05-20T04:50:57.694Z,7.65
2019-05-20T04:53:27.688Z,7.10
2019-05-20T04:56:01.850Z,6.95
2019-05-20T04:58:31.113Z,7.47
2019-05-20T05:01:02.373Z,8.28
2019-05-20T05:03:33.722Z,7.37
2019-05-20T05:06:04.706Z,7.10
2019-05-20T05:08:37.596Z,7.30
2019-05-20T05:11:10.228Z,7.84
2019-05-20T05:13:41.764Z,7.45
2019-05-20T05:16:17.813Z,8.13
2019-05-20T05:18:47.144Z,7.12
2019-05-20T05:21:19.222Z,7.13
2019-05-20T05:23:58.865Z,8.13
2019-05-20T05:26:17.964Z,7.28
2019-05-20T05:28:47.082Z,7.15
2019-05-20T05:31:16.478Z,7.15
2019-05-20T05:33:45.221Z,7.67
2019-05-20T05:36:13.972Z,7.90
2019-05-20T05:38:42.840Z,7.70
2019-05-20T05:41:11.548Z,7.03
2019-05-20T05:43:40.484Z,6.95
2019-05-20T05:46:09.572Z,7.42
2019-05-20T05:48:38.718Z,7.17
2019-05-20T05:51:07.798Z,7.00
2019-05-20T05:53:37.516Z,7.05
2019-05-20T05:56:06.348Z,7.62
2019-05-20T05:58:35.333Z,7.00
2019-05-20T06:01:04.248Z,7.60
2019-05-20T06:03:32.968Z,7.72
2019-05-20T06:06:11.923Z,7.72
2019-05-20T06:08:30.677Z,6.85
2019-05-20T06:10:59.540Z,6.90
2019-05-20T06:13:28.444Z,6.67
2019-05-20T06:15:57.433Z,7.53
2019-05-20T06:18:26.297Z,6.97
2019-05-20T06:20:55.076Z,7.60
2019-05-20T06:23:24.395Z,6.80
2019-05-20T06:25:53.169Z,7.78
2019-05-20T06:28:21.944Z,7.17
2019-05-20T06:30:50.884Z,7.90
2019-05-20T06:33:19.708Z,7.33
2019-05-20T06:35:48.983Z,6.70
2019-05-20T06:38:58.131Z,6.72
2019-05-20T06:41:27.032Z,6.80
2019-05-20T06:43:56.155Z,7.03
2019-05-20T06:46:24.911Z,7.58
2019-05-20T06:48:55.194Z,6.78
2019-05-20T06:51:23.928Z,7.00
2019-05-20T06:53:52.708Z,6.95
2019-05-20T06:56:21.432Z,6.70
2019-05-20T06:58:50.184Z,7.00
2019-05-20T07:01:18.988Z,7.30
2019-05-20T07:03:47.720Z,6.42
2019-05-20T07:06:16.811Z,6.95
2019-05-20T07:08:45.728Z,7.17
2019-05-20T07:11:14.551Z,7.60
2019-05-20T07:13:43.366Z,6.85
2019-05-20T07:16:12.515Z,6.62
2019-05-20T07:18:41.311Z,7.22
2019-05-20T07:21:10.428Z,7.17
2019-05-20T07:23:39.216Z,7.10
2019-05-20T07:26:08.148Z,7.62
2019-05-20T07:28:37.268Z,7.30
2019-05-20T07:31:06.278Z,6.72
2019-05-20T07:33:35.208Z,6.80
2019-05-20T07:36:03.989Z,7.40
2019-05-20T07:38:32.672Z,6.67
2019-05-20T07:41:01.454Z,7.30
2019-05-20T07:43:30.308Z,7.03
2019-05-20T07:45:59.315Z,6.62
2019-05-20T07:48:28.453Z,7.10
2019-05-20T07:50:57.299Z,7.42
2019-05-20T07:53:26.546Z,6.37
2019-05-20T07:55:58.783Z,7.40
2019-05-20T07:58:27.855Z,6.83
2019-05-20T08:00:56.681Z,7.90
2019-05-20T08:03:25.432Z,6.90
2019-05-20T08:05:54.256Z,6.45
2019-05-20T08:08:22.917Z,7.00
2019-05-20T08:10:51.895Z,6.72
2019-05-20T08:13:20.611Z,7.03
2019-05-20T08:15:49.371Z,8.00
2019-05-20T08:18:20.323Z,6.58
2019-05-20T08:20:46.999Z,6.97
2019-05-20T08:23:15.787Z,6.78
2019-05-20T08:25:44.662Z,6.80
2019-05-20T08:28:13.411Z,6.30
2019-05-20T08:30:42.447Z,6.80
2019-05-20T08:33:11.247Z,7.17
2019-05-20T08:35:40.083Z,6.67
2019-05-20T08:38:08.873Z,6.83
2019-05-20T08:40:37.831Z,7.20
2019-05-20T08:43:06.998Z,6.12
2019-05-20T08:45:35.764Z,6.55
2019-05-20T08:48:05.016Z,7.10
2019-05-20T08:50:33.831Z,6.55
2019-05-20T08:53:02.859Z,6.90
2019-05-20T08:55:31.937Z,6.17
2019-05-20T08:58:00.775Z,6.10
2019-05-20T09:00:29.556Z,6.28
2019-05-20T09:02:58.325Z,6.92
2019-05-20T09:05:28.260Z,6.47
2019-05-20T09:08:03.178Z,5.95
2019-05-20T09:10:24.707Z,5.75
2019-05-20T09:12:53.411Z,5.78
2019-05-20T09:15:22.167Z,6.13
2019-05-20T09:17:50.785Z,6.35
2019-05-20T09:20:19.487Z,5.90
2019-05-20T09:22:48.524Z,5.62
2019-05-20T09:25:18.587Z,6.20
2019-05-20T09:27:47.195Z,5.55
2019-05-20T09:30:15.827Z,5.95
2019-05-20T09:32:44.498Z,6.03
2019-05-20T09:35:13.395Z,5.67
2019-05-20T09:37:42.258Z,6.15
2019-05-20T09:40:10.936Z,5.30
2019-05-20T09:42:40.998Z,5.42
2019-05-20T09:45:08.732Z,5.28
2019-05-20T09:47:37.382Z,5.60
2019-05-20T09:50:06.431Z,6.05
2019-05-20T09:52:35.275Z,5.20
2019-05-20T09:55:05.210Z,5.33
2019-05-20T09:57:33.826Z,5.50
2019-05-20T10:00:02.584Z,5.42
2019-05-20T10:02:37.197Z,5.53
2019-05-20T10:04:59.877Z,5.80
2019-05-20T10:07:28.458Z,5.47
2019-05-20T10:09:56.987Z,5.40
2019-05-20T10:12:44.270Z,5.05
2019-05-20T10:14:54.290Z,4.75
2019-05-20T10:17:23.159Z,6.10
2019-05-20T10:19:51.749Z,4.95
2019-05-20T10:22:20.383Z,5.12
2019-05-20T10:24:48.940Z,5.28
2019-05-20T10:27:17.482Z,5.60
2019-05-20T10:29:45.998Z,5.25
2019-05-20T10:32:14.524Z,5.45
2019-05-20T10:34:43.086Z,5.30
2019-05-20T10:37:11.655Z,4.90
2019-05-20T10:39:40.450Z,4.72
2019-05-20T10:42:09.026Z,5.65
2019-05-20T10:44:41.227Z,5.20
2019-05-20T10:47:06.775Z,5.10
2019-05-20T10:49:35.539Z,5.30
2019-05-20T10:52:04.978Z,5.00
2019-05-20T10:54:33.822Z,4.95
2019-05-20T10:57:02.431Z,4.37
2019-05-20T10:59:31.038Z,4.70
2019-05-20T11:01:59.559Z,4.97
2019-05-20T11:04:28.227Z,4.40
2019-05-20T11:06:57.046Z,5.35
2019-05-20T11:09:25.706Z,4.62
2019-05-20T11:11:54.428Z,4.62
2019-05-20T11:14:23.016Z,4.40
2019-05-20T11:16:51.635Z,4.50
2019-05-20T11:19:20.218Z,4.67
2019-05-20T11:21:48.794Z,4.47
2019-05-20T11:24:17.415Z,4.72
2019-05-20T11:26:46.062Z,4.90
2019-05-20T11:29:15.024Z,4.40
2019-05-20T11:31:43.887Z,4.60
2019-05-20T11:34:12.852Z,4.33
2019-05-20T11:36:41.466Z,4.40
2019-05-20T11:39:10.106Z,4.67
2019-05-20T11:41:52.166Z,4.62
2019-05-20T11:44:07.722Z,4.20
2019-05-20T11:46:36.558Z,3.92
2019-05-20T11:49:05.158Z,4.55
2019-05-20T11:51:33.707Z,4.47
2019-05-20T11:54:02.789Z,4.70
2019-05-20T11:56:31.608Z,4.20
2019-05-20T11:59:00.541Z,4.65
2019-05-20T12:01:29.246Z,4.70
2019-05-20T12:03:57.815Z,4.45
2019-05-20T12:06:26.965Z,4.37
2019-05-20T12:08:55.529Z,4.30
2019-05-20T12:11:24.118Z,4.92
2019-05-20T12:13:52.691Z,4.15
2019-05-20T12:16:21.922Z,4.33
2019-05-20T12:18:50.510Z,4.12
2019-05-20T12:21:19.088Z,4.10
2019-05-20T12:23:47.650Z,4.85
2019-05-20T12:26:16.732Z,4.40
2019-05-20T12:28:45.317Z,4.60
2019-05-20T12:31:14.099Z,4.47
2019-05-20T12:33:43.061Z,4.30
2019-05-20T12:36:11.761Z,4.03
2019-05-20T12:38:40.601Z,4.62
2019-05-20T12:41:09.257Z,4.15
2019-05-20T12:43:37.781Z,3.87
2019-05-20T12:46:06.301Z,3.90
2019-05-20T12:48:34.787Z,3.98
2019-05-20T12:51:03.480Z,3.85
2019-05-20T12:53:32.309Z,3.87
2019-05-20T12:56:01.053Z,3.80
2019-05-20T12:58:29.752Z,3.80
2019-05-20T13:00:58.470Z,8.53
2019-05-20T13:03:27.298Z,3.42
2019-05-20T13:05:56.142Z,3.80
2019-05-20T13:08:24.802Z,4.00
2019-05-20T13:10:53.519Z,3.80
2019-05-20T13:13:22.758Z,3.50
2019-05-20T13:21:43.215Z,3.33
2019-05-20T13:24:11.895Z,3.87
2019-05-20T13:26:40.794Z,3.80
2019-05-20T13:29:09.783Z,3.17
2019-05-20T13:31:38.422Z,3.75
2019-05-20T13:34:07.964Z,3.95
2019-05-20T13:36:36.639Z,3.83
2019-05-20T13:39:06.164Z,3.50
2019-05-20T13:41:34.830Z,3.70
2019-05-20T13:44:03.546Z,4.05
2019-05-20T13:46:32.126Z,3.90
2019-05-20T13:49:00.774Z,3.60
2019-05-20T13:51:29.446Z,3.60
2019-05-20T13:53:58.059Z,3.72
2019-05-20T13:56:26.774Z,3.50
2019-05-20T13:58:57.266Z,4.22
2019-05-20T14:01:25.982Z,3.90
2019-05-20T14:03:57.205Z,3.90
2019-05-20T14:06:24.094Z,3.80
2019-05-20T14:08:52.678Z,3.70
2019-05-20T14:11:33.853Z,3.45
2019-05-20T14:13:49.861Z,3.75
2019-05-20T14:16:18.605Z,4.05
2019-05-20T14:18:47.237Z,4.30
2019-05-20T14:21:16.214Z,3.70
2019-05-20T14:23:45.019Z,3.95
2019-05-20T14:26:13.611Z,4.00
2019-05-20T14:28:42.262Z,3.75
2019-05-20T14:31:11.042Z,4.00
2019-05-20T14:33:39.751Z,4.10
2019-05-20T14:36:11.474Z,4.23
2019-05-20T14:38:40.255Z,4.15
2019-05-20T14:41:21.222Z,4.42
2019-05-20T14:43:37.651Z,4.20
2019-05-20T14:46:06.237Z,4.12
2019-05-20T14:48:34.930Z,4.08
2019-05-20T14:51:03.742Z,3.90
2019-05-20T14:53:32.734Z,4.67
2019-05-20T14:56:01.405Z,4.40
2019-05-20T14:58:30.201Z,4.33
2019-05-20T15:00:58.927Z,4.07
2019-05-20T15:03:28.018Z,4.22
2019-05-20T15:05:56.802Z,4.50
2019-05-20T15:08:25.472Z,3.83
2019-05-20T15:10:54.356Z,4.08
2019-05-20T15:13:23.106Z,4.10
2019-05-20T15:15:51.775Z,4.70
2019-05-20T15:18:20.492Z,4.57
2019-05-20T15:20:49.095Z,4.65
2019-05-20T15:23:17.742Z,4.75
2019-05-20T15:25:46.547Z,4.60
2019-05-20T15:28:15.683Z,4.78
2019-05-20T15:33:53.591Z,4.03
2019-05-20T15:36:22.595Z,3.20
2019-05-20T15:38:51.324Z,2.95
2019-05-20T15:41:20.159Z,2.70
2019-05-20T15:43:48.813Z,2.72
2019-05-20T15:46:17.811Z,2.92
2019-05-20T15:48:46.778Z,2.30
2019-05-20T15:51:15.436Z,2.40
2019-05-20T15:53:44.275Z,2.85
2019-05-20T15:56:12.878Z,3.17
2019-05-20T15:58:41.471Z,3.45
2019-05-20T16:01:10.099Z,3.40
2019-05-20T16:03:38.728Z,3.40
2019-05-20T16:06:07.323Z,3.37
2019-05-20T16:08:35.935Z,3.40
2019-05-20T16:11:06.908Z,3.90
2019-05-20T16:13:33.635Z,3.33
2019-05-20T16:16:02.239Z,3.30
2019-05-20T16:18:30.853Z,3.47
2019-05-20T16:20:59.472Z,4.28
2019-05-20T16:23:28.457Z,3.67
2019-05-20T16:25:57.472Z,4.15
2019-05-20T16:28:26.430Z,3.70
2019-05-20T16:30:55.123Z,4.03
2019-05-20T16:33:23.900Z,3.70
2019-05-20T16:35:52.465Z,3.60
2019-05-20T16:38:21.293Z,3.65
2019-05-20T16:40:49.945Z,3.60
2019-05-20T16:43:18.498Z,4.00
2019-05-20T16:45:47.417Z,4.10
2019-05-20T16:48:16.046Z,3.90
2019-05-20T16:50:44.730Z,4.12
2019-05-20T16:53:13.613Z,3.60
2019-05-20T16:55:42.285Z,3.80
2019-05-20T16:58:12.002Z,3.20
2019-05-20T17:00:48.853Z,3.75
2019-05-20T17:03:28.037Z,3.30
2019-05-20T17:05:57.289Z,4.10
2019-05-20T17:08:36.471Z,3.40
2019-05-20T17:14:26.004Z,3.85
2019-05-20T17:16:56.601Z,3.90
2019-05-20T17:19:31.002Z,3.85
2019-05-20T17:22:00.069Z,4.03
2019-05-20T17:24:29.593Z,4.00
2019-05-20T17:26:58.745Z,3.83
2019-05-20T17:29:27.531Z,3.50
2019-05-20T17:31:56.289Z,4.08
2019-05-20T17:34:25.120Z,3.80
2019-05-20T17:36:57.996Z,3.75
2019-05-20T17:39:26.962Z,3.90
2019-05-20T17:41:55.689Z,3.47
2019-05-20T17:44:24.342Z,3.80
2019-05-20T17:46:53.177Z,4.28
2019-05-20T17:49:24.109Z,4.12
2019-05-20T17:51:52.991Z,4.05
2019-05-20T17:54:26.855Z,3.67
2019-05-20T17:56:59.848Z,3.83
2019-05-20T17:59:30.045Z,4.55
2019-05-20T18:02:21.338Z,4.17
2019-05-20T18:04:55.348Z,3.45
2019-05-20T18:07:24.588Z,4.33
2019-05-20T18:09:58.044Z,4.22
2019-05-20T18:12:33.611Z,4.25
2019-05-20T18:15:21.270Z,4.40
2019-05-20T18:17:50.055Z,4.03
2019-05-20T18:20:18.859Z,4.17
2019-05-20T18:22:48.964Z,4.17
2019-05-20T18:25:17.828Z,4.12
2019-05-20T18:27:46.528Z,4.28
2019-05-20T18:30:15.390Z,4.30
2019-05-20T18:32:44.160Z,4.40
2019-05-20T18:35:13.035Z,4.47
2019-05-20T18:37:41.892Z,4.10
2019-05-20T18:40:14.324Z,4.50
2019-05-20T18:42:40.447Z,4.78
2019-05-20T18:45:09.490Z,3.97
2019-05-20T18:47:38.384Z,4.33
2019-05-20T18:50:07.317Z,4.67
2019-05-20T18:52:36.138Z,4.75
2019-05-20T18:55:04.930Z,5.20
2019-05-20T18:57:33.647Z,4.80
2019-05-20T19:00:02.902Z,4.35
2019-05-20T19:02:31.253Z,3.92
2019-05-20T19:05:00.016Z,4.60
2019-05-20T19:07:28.900Z,4.42
2019-05-20T19:09:57.664Z,4.45
2019-05-20T19:12:26.430Z,4.67
2019-05-20T19:14:55.281Z,4.72
2019-05-20T19:17:24.315Z,4.70
2019-05-20T19:19:53.160Z,4.80
2019-05-20T19:22:21.991Z,4.42
2019-05-20T19:24:52.100Z,5.15
2019-05-20T19:27:21.080Z,4.60
2019-05-20T19:29:50.244Z,4.97
2019-05-20T19:32:19.000Z,5.25
2019-05-20T19:34:48.076Z,5.05
2019-05-20T19:37:16.783Z,4.60
2019-05-20T19:39:45.469Z,5.12
2019-05-20T19:42:14.190Z,4.80
2019-05-20T19:44:42.992Z,4.85
2019-05-20T19:47:11.868Z,4.95
2019-05-20T19:49:42.640Z,4.97
2019-05-20T19:52:09.791Z,4.90
2019-05-20T19:54:38.886Z,5.60
2019-05-20T19:57:08.112Z,5.30
2019-05-20T19:59:53.951Z,4.90
2019-05-20T20:02:29.968Z,5.03
2019-05-20T20:05:00.803Z,4.83
2019-05-20T20:07:29.581Z,5.28
2019-05-20T20:09:58.242Z,4.25
2019-05-20T20:12:27.537Z,5.25
2019-05-20T20:16:04.059Z,5.85
2019-05-20T20:18:33.028Z,5.20
2019-05-20T20:21:08.309Z,5.67
2019-05-20T20:23:52.024Z,5.33
2019-05-20T20:26:21.162Z,5.65
2019-05-20T20:31:26.602Z,5.50
2019-05-20T20:33:57.034Z,5.53
2019-05-20T20:36:25.740Z,5.30
2019-05-20T20:39:01.957Z,4.95
2019-05-20T20:41:32.021Z,5.50
2019-05-20T20:44:04.586Z,5.05
2019-05-20T20:46:33.120Z,5.55
2019-05-20T20:49:01.787Z,5.25
2019-05-20T20:51:30.626Z,5.70
2019-05-20T20:53:59.272Z,5.12
2019-05-20T20:56:27.955Z,5.37
2019-05-20T20:58:56.664Z,5.35
2019-05-20T21:01:25.324Z,5.10
2019-05-20T21:03:54.018Z,5.57
2019-05-20T21:06:22.719Z,5.25
2019-05-20T21:10:33.434Z,5.57
2019-05-20T21:13:02.315Z,5.20
2019-05-20T21:32:23.059Z,6.00
2019-05-20T21:34:51.746Z,6.08
2019-05-20T21:37:20.396Z,5.92
2019-05-20T21:39:49.076Z,5.47
2019-05-20T21:42:18.047Z,5.37
2019-05-20T21:44:46.852Z,5.42
2019-05-20T22:04:07.734Z,5.75
2019-05-20T22:06:37.742Z,5.58
2019-05-20T22:09:07.530Z,6.10
2019-05-20T22:11:39.454Z,5.70
2019-05-20T22:14:09.754Z,5.20
2019-05-20T22:16:40.307Z,5.35
2019-05-20T22:19:09.299Z,5.60
2019-05-20T22:21:42.715Z,5.83
2019-05-20T22:24:11.809Z,5.60
2019-05-20T22:26:40.685Z,5.75
2019-05-20T22:29:09.739Z,5.60
2019-05-20T22:31:39.070Z,5.50
2019-05-20T22:34:08.815Z,5.97
2019-05-20T22:36:37.628Z,5.70
2019-05-20T22:39:07.910Z,5.67
2019-05-20T22:41:37.422Z,6.12
2019-05-20T22:44:06.303Z,5.70
2019-05-20T22:48:17.782Z,5.80
2019-05-20T22:50:48.903Z,5.78
2019-05-20T22:53:16.851Z,5.83
2019-05-20T22:55:45.886Z,6.58
2019-05-20T22:58:14.862Z,6.03
2019-05-20T23:00:43.606Z,5.78
2019-05-20T23:03:12.510Z,5.87
2019-05-20T23:05:41.607Z,6.28
2019-05-20T23:08:10.579Z,6.17
2019-05-20T23:10:39.198Z,6.17
2019-05-20T23:13:07.754Z,6.33
2019-05-20T23:15:36.555Z,6.03
2019-05-20T23:18:05.317Z,6.15
2019-05-20T23:20:33.905Z,6.55
2019-05-20T23:23:02.459Z,5.85
2019-05-20T23:25:31.967Z,6.55
2019-05-20T23:28:00.858Z,6.05
2019-05-20T23:30:29.370Z,5.80
2019-05-20T23:32:58.273Z,6.00
2019-05-20T23:35:27.189Z,5.90
2019-05-20T23:37:56.128Z,6.20
2019-05-20T23:40:24.676Z,5.90
2019-05-20T23:42:53.176Z,5.97
2019-05-20T23:45:21.769Z,6.17
2019-05-20T23:47:50.364Z,6.00
2019-05-20T23:50:19.017Z,6.65
2019-05-20T23:52:47.880Z,6.25
2019-05-20T23:55:16.533Z,6.37
2019-05-20T23:57:45.157Z,6.50
